Time;durP1;ratioP1;P1;durP2;ratioP2;P2;SDS_P1;SDS_P2;PMS_P1;PMS_P2;Temp;Humidity;BMP_temperature;BMP_pressure;BME280_temperature;BME280_humidity;BME280_pressure;Samples;Min_cycle;Max_cycle;Signal;HPM_P1;HPM_P2
2023/01/03 00:00:05;;;;;;;9.73;6.90;;;;;;;5.02;100.00;102517.13;5052514;28;20040;-56
2023/01/03 00:02:31;;;;;;;12.00;7.13;;;;;;;5.00;100.00;102507.47;5052498;28;20032;-56
2023/01/03 00:04:56;;;;;;;17.20;6.75;;;;;;;4.97;100.00;102520.72;5052006;28;20029;-57
2023/01/03 00:07:32;;;;;;;16.30;7.45;;;;;;;4.94;100.00;102507.63;5052205;28;20384;-57
2023/01/03 00:10:09;;;;;;;12.07;6.90;;;;;;;4.92;100.00;102513.84;5052669;28;20029;-54
2023/01/03 00:12:35;;;;;;;12.63;7.47;;;;;;;4.90;100.00;102518.31;5050476;28;20116;-56
2023/01/03 00:15:01;;;;;;;13.32;7.47;;;;;;;4.84;100.00;102511.41;5052473;28;20033;-57
2023/01/03 00:17:27;;;;;;;14.88;7.32;;;;;;;4.80;100.00;102513.25;5052325;28;20396;-56
2023/01/03 00:19:52;;;;;;;11.88;6.78;;;;;;;4.79;100.00;102519.41;5051144;28;20029;-57
2023/01/03 00:22:17;;;;;;;11.85;7.05;;;;;;;4.76;100.00;102516.00;5049767;28;20110;-55
2023/01/03 00:24:44;;;;;;;16.67;7.20;;;;;;;4.70;100.00;102503.00;5049021;28;20094;-57
2023/01/03 00:27:10;;;;;;;14.60;7.22;;;;;;;4.67;100.00;102501.31;5051864;28;20482;-56
2023/01/03 00:29:36;;;;;;;9.98;7.38;;;;;;;4.64;100.00;102502.25;5051329;28;20037;-56
2023/01/03 00:32:02;;;;;;;12.23;7.75;;;;;;;4.62;100.00;102506.69;5052026;28;20075;-56
2023/01/03 00:34:27;;;;;;;12.60;7.30;;;;;;;4.59;100.00;102517.28;5040809;28;20064;-56
2023/01/03 00:36:53;;;;;;;11.48;7.35;;;;;;;4.55;100.00;102509.53;5049565;28;20024;-55
2023/01/03 00:39:18;;;;;;;18.77;8.30;;;;;;;4.52;100.00;102513.06;5051573;28;20414;-56
2023/01/03 00:41:43;;;;;;;14.77;8.82;;;;;;;4.50;100.00;102514.91;5051653;28;20401;-56
2023/01/03 00:44:09;;;;;;;16.00;8.93;;;;;;;4.47;100.00;102519.38;5052105;28;20064;-56
2023/01/03 00:46:34;;;;;;;14.82;8.27;;;;;;;4.44;100.00;102526.41;5050391;28;20018;-56
2023/01/03 00:49:00;;;;;;;15.02;8.15;;;;;;;4.42;100.00;102524.72;5051587;28;20025;-53
2023/01/03 00:51:27;;;;;;;20.35;9.00;;;;;;;4.37;100.00;102527.47;5051488;28;20040;-55
2023/01/03 00:53:55;;;;;;;13.82;8.10;;;;;;;4.32;100.00;102531.13;5051613;28;20398;-55
2023/01/03 00:56:23;;;;;;;15.25;8.13;;;;;;;4.29;100.00;102531.19;5051944;28;20033;-57
2023/01/03 00:58:48;;;;;;;12.20;7.95;;;;;;;4.25;100.00;102530.41;5051142;28;20029;-54
2023/01/03 01:01:17;;;;;;;14.90;8.32;;;;;;;4.22;100.00;102528.69;5049131;28;20025;-55
2023/01/03 01:03:45;;;;;;;15.27;8.00;;;;;;;4.21;100.00;102534.88;5052053;28;20363;-52
2023/01/03 01:06:16;;;;;;;13.53;7.90;;;;;;;4.18;100.00;102537.56;5050992;28;20074;-56
2023/01/03 01:08:42;;;;;;;17.17;8.68;;;;;;;4.16;100.00;102541.09;5051443;28;20036;-56
2023/01/03 01:11:09;;;;;;;20.27;8.75;;;;;;;4.12;100.00;102542.09;5050531;28;20056;-56
2023/01/03 01:13:34;;;;;;;12.77;8.43;;;;;;;4.07;100.00;102544.81;5052290;28;20032;-57
2023/01/03 01:16:08;;;;;;;13.80;9.20;;;;;;;4.04;100.00;102552.75;5050382;28;20029;-56
2023/01/03 01:18:35;;;;;;;13.55;8.55;;;;;;;4.01;100.00;102547.56;5051094;28;20049;-56
2023/01/03 01:21:07;;;;;;;14.05;8.68;;;;;;;3.96;100.00;102554.69;5051598;28;20155;-56
2023/01/03 01:23:34;;;;;;;13.32;9.02;;;;;;;3.91;100.00;102560.03;5051329;28;20025;-53
2023/01/03 01:26:01;;;;;;;13.30;9.05;;;;;;;3.87;100.00;102556.63;5051340;28;20110;-57
2023/01/03 01:28:27;;;;;;;12.80;9.57;;;;;;;3.83;100.00;102559.34;5051134;28;20025;-55
2023/01/03 01:30:52;;;;;;;15.38;9.32;;;;;;;3.82;100.00;102561.09;5051143;28;20044;-55
2023/01/03 01:33:17;;;;;;;14.38;9.75;;;;;;;3.78;100.00;102564.72;5050082;28;20503;-56
2023/01/03 01:35:42;;;;;;;17.95;9.82;;;;;;;3.74;100.00;102559.53;5049382;28;20028;-54
2023/01/03 01:38:08;;;;;;;14.25;9.45;;;;;;;3.70;100.00;102566.63;5050819;28;20041;-52
2023/01/03 01:40:33;;;;;;;15.40;9.15;;;;;;;3.67;100.00;102558.78;5051698;28;20017;-56
2023/01/03 01:45:55;;;;;;;16.85;9.40;;;;;;;3.62;100.00;102572.03;5051626;28;20048;-56
2023/01/03 01:48:21;;;;;;;12.45;9.50;;;;;;;3.57;100.00;102573.03;5050251;28;20032;-56
2023/01/03 01:50:51;;;;;;;13.18;9.13;;;;;;;3.53;100.00;102577.47;5050800;28;20079;-57
2023/01/03 01:53:20;;;;;;;15.68;10.57;;;;;;;3.50;100.00;102583.63;5050881;28;20032;-55
2023/01/03 01:55:50;;;;;;;16.17;9.88;;;;;;;3.49;100.00;102584.50;5050468;28;20036;-56
2023/01/03 01:58:16;;;;;;;17.35;9.52;;;;;;;3.46;100.00;102583.72;5042682;28;20036;-52
2023/01/03 02:00:43;;;;;;;16.48;10.25;;;;;;;3.44;100.00;102594.25;5050308;28;20029;-55
2023/01/03 02:03:09;;;;;;;17.25;9.82;;;;;;;3.44;100.00;102593.38;5052194;28;20078;-55
2023/01/03 02:05:38;;;;;;;14.40;9.90;;;;;;;3.43;100.00;102592.53;5054794;28;20036;-52
2023/01/03 02:08:04;;;;;;;17.52;10.50;;;;;;;3.41;100.00;102581.16;5053940;28;20109;-56
2023/01/03 02:10:48;;;;;;;14.27;9.45;;;;;;;3.42;100.00;102587.31;5054433;28;20108;-56
2023/01/03 02:13:36;;;;;;;17.13;9.65;;;;;;;3.37;100.00;102576.03;5053633;28;20032;-56
2023/01/03 02:16:04;;;;;;;16.38;9.85;;;;;;;3.32;100.00;102581.34;5053736;28;20052;-57
2023/01/03 02:18:42;;;;;;;15.10;10.45;;;;;;;3.29;100.00;102579.63;5051904;28;20060;-55
2023/01/03 02:21:20;;;;;;;17.38;9.68;;;;;;;3.27;100.00;102585.81;5046586;28;20033;-55
2023/01/03 02:24:06;;;;;;;14.13;9.65;;;;;;;3.22;100.00;102587.66;5054288;28;20036;-56
2023/01/03 02:26:40;;;;;;;14.20;9.27;;;;;;;3.18;100.00;102597.38;5050709;28;20487;-56
2023/01/03 02:29:29;;;;;;;15.57;11.23;;;;;;;3.15;100.00;102598.28;5053801;28;20068;-55
2023/01/03 02:32:24;;;;;;;15.05;9.98;;;;;;;3.13;100.00;102593.94;5044586;28;20017;-56
2023/01/03 02:35:12;;;;;;;14.20;9.90;;;;;;;3.08;100.00;102601.00;5041921;28;20022;-55
2023/01/03 02:37:55;;;;;;;13.32;10.35;;;;;;;3.04;100.00;102602.84;5044145;28;20386;-56
2023/01/03 02:40:36;;;;;;;16.45;10.55;;;;;;;3.02;100.00;102593.25;5053344;28;20059;-54
2023/01/03 02:43:16;;;;;;;14.75;10.63;;;;;;;3.00;100.00;102593.28;5044719;28;20053;-55
2023/01/03 02:46:09;;;;;;;16.75;10.18;;;;;;;2.99;100.00;102591.53;5053370;28;20032;-56
2023/01/03 02:48:57;;;;;;;15.23;10.30;;;;;;;2.93;100.00;102592.53;5053984;28;20024;-57
2023/01/03 02:51:30;;;;;;;13.30;9.93;;;;;;;2.90;100.00;102587.31;5050751;28;20432;-55
2023/01/03 02:53:58;;;;;;;21.55;10.60;;;;;;;2.90;100.00;102594.34;5053823;28;20470;-55
2023/01/03 02:56:34;;;;;;;15.95;10.18;;;;;;;2.88;100.00;102594.38;5052865;28;20025;-57
2023/01/03 02:59:04;;;;;;;17.38;10.55;;;;;;;2.83;100.00;102588.31;5054134;28;20085;-54
2023/01/03 03:01:30;;;;;;;18.08;10.40;;;;;;;2.85;100.00;102585.66;5053540;28;20101;-57
2023/01/03 03:03:58;;;;;;;17.15;10.75;;;;;;;2.85;100.00;102590.88;5052994;28;20029;-56
2023/01/03 03:06:53;;;;;;;15.35;10.00;;;;;;;2.84;100.00;102589.19;5051905;28;20096;-55
2023/01/03 03:09:18;;;;;;;17.23;9.45;;;;;;;2.82;100.00;102588.34;5052283;28;20045;-55
2023/01/03 03:14:40;;;;;;;16.67;10.90;;;;;;;2.81;100.00;102591.84;5052763;28;20031;-56
2023/01/03 03:17:14;;;;;;;14.13;9.95;;;;;;;2.79;100.00;102599.75;5052816;28;20060;-52
2023/01/03 03:25:27;;;;;;;19.38;11.02;;;;;;;2.76;100.00;102595.44;5053244;28;20040;-55
2023/01/03 03:30:45;;;;;;;15.07;9.25;;;;;;;2.76;100.00;102589.28;5052277;28;20079;-55
2023/01/03 03:33:12;;;;;;;19.30;10.27;;;;;;;2.73;100.00;102589.34;5052073;28;20115;-56
2023/01/03 03:35:53;;;;;;;19.00;11.05;;;;;;;2.74;100.00;102591.09;5039525;28;20036;-52
2023/01/03 03:38:31;;;;;;;18.98;10.15;;;;;;;2.72;100.00;102591.09;5034891;28;20083;-55
2023/01/03 03:47:43;;;;;;;15.32;9.93;;;;;;;2.72;100.00;102585.84;5048628;28;20333;-54
2023/01/03 03:50:14;;;;;;;16.98;10.85;;;;;;;2.70;100.00;102589.41;5051786;28;20033;-52
2023/01/03 03:52:45;;;;;;;17.92;10.48;;;;;;;2.67;100.00;102592.06;5047670;28;20033;-52
2023/01/03 03:55:22;;;;;;;14.15;9.88;;;;;;;2.67;100.00;102594.69;5045900;28;20098;-56
2023/01/03 03:57:54;;;;;;;17.77;10.32;;;;;;;2.65;100.00;102583.34;5052634;28;20119;-54
2023/01/03 04:00:25;;;;;;;15.80;10.00;;;;;;;2.64;100.00;102586.88;5051968;28;20037;-53
2023/01/03 04:02:52;;;;;;;16.67;9.85;;;;;;;2.64;100.00;102589.50;5052829;28;20051;-56
2023/01/03 04:05:22;;;;;;;15.77;10.38;;;;;;;2.62;100.00;102584.25;5052262;28;20029;-55
2023/01/03 04:07:47;;;;;;;;;;;;;;;2.68;100.00;102591.16;5052664;28;20052;-55
2023/01/03 04:10:14;;;;;;;14.85;9.45;;;;;;;2.63;100.00;102593.88;5050439;28;19908;-56
2023/01/03 04:12:39;;;;;;;15.25;10.07;;;;;;;2.61;100.00;102598.25;5052091;28;20029;-55
2023/01/03 04:15:05;;;;;;;15.27;10.52;;;;;;;2.62;100.00;102596.53;5052724;28;20035;-54
2023/01/03 04:17:31;;;;;;;24.48;10.55;;;;;;;2.61;100.00;102598.25;5051660;28;20053;-55
2023/01/03 04:19:57;;;;;;;17.73;10.35;;;;;;;2.59;100.00;102592.19;5052753;28;20112;-56
2023/01/03 04:22:22;;;;;;;17.75;10.65;;;;;;;2.59;100.00;102592.19;5052140;28;20029;-53
2023/01/03 04:24:47;;;;;;;16.70;10.75;;;;;;;2.58;100.00;102588.69;5052000;28;20025;-54
2023/01/03 04:27:12;;;;;;;19.52;10.77;;;;;;;2.57;100.00;102583.47;5051202;28;20040;-55
2023/01/03 04:29:38;;;;;;;18.65;11.07;;;;;;;2.56;100.00;102585.22;5052333;28;20020;-56
2023/01/03 04:32:04;;;;;;;13.85;10.73;;;;;;;2.56;100.00;102581.72;5051081;28;20063;-55
2023/01/03 04:34:29;;;;;;;19.33;11.15;;;;;;;2.54;100.00;102587.00;5052413;28;20021;-54
2023/01/03 04:36:54;;;;;;;18.05;11.13;;;;;;;2.54;100.00;102587.00;5050747;28;20067;-54
2023/01/03 04:39:19;;;;;;;17.73;10.85;;;;;;;2.53;100.00;102589.63;5052265;28;20083;-52
2023/01/03 04:41:45;;;;;;;22.55;11.80;;;;;;;2.52;100.00;102586.16;5051184;28;20044;-56
2023/01/03 04:44:10;;;;;;;20.00;11.95;;;;;;;2.51;100.00;102591.41;5044613;28;20030;-55
2023/01/03 04:46:38;;;;;;;22.48;12.02;;;;;;;2.51;100.00;102591.41;5045420;28;20056;-54
2023/01/03 04:49:05;;;;;;;19.52;12.75;;;;;;;2.49;100.00;102603.69;5050975;28;20056;-55
2023/01/03 04:51:31;;;;;;;18.33;12.50;;;;;;;2.49;100.00;102595.84;5051599;28;20036;-56
2023/01/03 04:53:57;;;;;;;20.48;13.48;;;;;;;2.49;100.00;102595.84;5051577;28;20116;-54
2023/01/03 04:56:28;;;;;;;24.60;13.80;;;;;;;2.47;100.00;102587.97;5051649;28;20546;-55
2023/01/03 04:58:54;;;;;;;22.08;14.13;;;;;;;2.46;100.00;102594.09;5052073;28;20374;-53
2023/01/03 05:01:19;;;;;;;20.13;14.07;;;;;;;2.45;100.00;102589.78;5046569;28;20028;-53
2023/01/03 05:03:45;;;;;;;24.05;14.77;;;;;;;2.45;100.00;102592.41;5051786;28;20486;-55
2023/01/03 05:06:11;;;;;;;22.55;14.23;;;;;;;2.45;100.00;102576.66;5051065;28;20025;-55
2023/01/03 05:08:37;;;;;;;23.88;15.32;;;;;;;2.48;100.00;102573.09;5051994;28;20033;-54
2023/01/03 05:11:03;;;;;;;24.35;15.77;;;;;;;2.48;100.00;102583.59;5059509;28;20032;-56
2023/01/03 05:13:28;;;;;;;24.98;14.60;;;;;;;2.50;100.00;102581.81;5051794;28;20175;-54
2023/01/03 05:15:54;;;;;;;21.63;15.10;;;;;;;2.48;100.00;102583.59;5052122;28;20021;-53
2023/01/03 05:18:19;;;;;;;22.35;15.45;;;;;;;2.50;100.00;102581.81;5058126;28;20071;-55
2023/01/03 05:26:18;;;;;;;28.58;15.48;;;;;;;2.52;100.00;102578.28;5050768;28;20044;-55
2023/01/03 05:28:46;;;;;;;21.92;14.02;;;;;;;2.51;100.00;102568.69;5051359;28;20029;-55
2023/01/03 05:31:12;;;;;;;20.20;13.85;;;;;;;2.53;100.00;102574.78;5048576;28;20047;-56
2023/01/03 05:33:38;;;;;;;22.92;14.05;;;;;;;2.53;100.00;102568.66;5058679;28;20032;-55
2023/01/03 05:36:04;;;;;;;24.00;14.45;;;;;;;2.52;100.00;102566.94;5051417;28;20122;-53
2023/01/03 05:38:30;;;;;;;22.15;13.55;;;;;;;2.51;100.00;102554.69;5052853;28;20189;-52
2023/01/03 05:40:55;;;;;;;20.15;13.88;;;;;;;2.54;100.00;102557.28;5051608;28;20069;-55
2023/01/03 05:43:21;;;;;;;19.10;13.55;;;;;;;2.53;100.00;102550.28;5054765;28;20103;-52
2023/01/03 05:45:50;;;;;;;19.15;13.07;;;;;;;2.57;100.00;102559.88;5043354;28;20017;-53
2023/01/03 05:48:17;;;;;;;22.77;14.02;;;;;;;2.59;100.00;102565.94;5055058;28;20403;-54
2023/01/03 05:50:42;;;;;;;22.17;13.77;;;;;;;2.60;100.00;102572.94;5054802;28;20053;-57
2023/01/03 05:53:08;;;;;;;20.95;13.63;;;;;;;2.61;100.00;102573.78;5055114;28;20544;-53
2023/01/03 05:55:35;;;;;;;21.23;12.73;;;;;;;2.61;100.00;102564.16;5053500;28;20028;-56
2023/01/03 05:58:01;;;;;;;21.77;13.63;;;;;;;2.64;100.00;102563.25;5054961;28;20112;-55
2023/01/03 06:00:26;;;;;;;22.73;12.30;;;;;;;2.67;100.00;102558.81;5055480;28;20411;-53
2023/01/03 06:02:51;;;;;;;20.38;12.48;;;;;;;2.70;100.00;102552.69;5049613;28;20547;-54
2023/01/03 06:05:16;;;;;;;19.38;12.95;;;;;;;2.72;100.00;102557.00;5054215;28;20029;-53
2023/01/03 06:07:42;;;;;;;19.85;12.32;;;;;;;2.77;100.00;102549.06;5054729;28;20028;-52
2023/01/03 06:10:07;;;;;;;21.45;12.30;;;;;;;2.81;100.00;102542.00;5053933;28;20029;-55
2023/01/03 06:12:33;;;;;;;22.20;12.27;;;;;;;2.84;100.00;102542.81;5054591;28;20031;-53
2023/01/03 06:14:58;;;;;;;21.52;12.07;;;;;;;2.89;100.00;102540.09;5054492;28;20387;-57
2023/01/03 06:20:08;;;;;;;18.73;12.20;;;;;;;2.99;100.00;102541.66;5055068;28;20134;-56
2023/01/03 06:22:33;;;;;;;21.90;12.10;;;;;;;3.03;100.00;102535.50;5054258;28;20562;-55
2023/01/03 06:24:58;;;;;;;16.75;11.50;;;;;;;3.08;100.00;102544.16;5054052;28;20025;-56
2023/01/03 06:27:24;;;;;;;19.63;11.27;;;;;;;3.13;100.00;102542.31;5054229;28;20074;-56
2023/01/03 06:29:49;;;;;;;20.60;11.90;;;;;;;3.18;100.00;102538.72;5054216;28;20083;-54
2023/01/03 06:32:14;;;;;;;20.17;11.55;;;;;;;3.21;100.00;102538.66;5054217;28;20025;-56
2023/01/03 06:34:39;;;;;;;18.60;11.27;;;;;;;3.25;100.00;102535.97;5054026;28;20029;-53
2023/01/03 06:37:05;;;;;;;16.67;11.00;;;;;;;3.31;100.00;102527.09;5054257;28;20021;-56
2023/01/03 06:39:32;;;;;;;16.67;11.18;;;;;;;3.34;100.00;102537.53;5053445;28;20037;-56
2023/01/03 06:41:57;;;;;;;18.58;10.88;;;;;;;3.36;100.00;102532.25;5053081;28;20442;-53
2023/01/03 06:44:23;;;;;;;15.60;10.20;;;;;;;3.36;100.00;102533.13;5040288;28;20025;-54
2023/01/03 06:53:11;;;;;;;19.05;10.43;;;;;;;3.38;100.00;102536.59;5054191;28;20497;-55
2023/01/03 06:55:13;;;;;;;19.25;11.43;;;;;;;3.43;100.00;102515.47;5052917;28;20098;-57
2023/01/03 06:57:38;;;;;;;18.48;11.15;;;;;;;3.46;100.00;102497.03;5052878;28;20032;-56
2023/01/03 07:00:04;;;;;;;17.45;10.82;;;;;;;3.47;100.00;102517.16;5053546;28;20057;-55
2023/01/03 07:02:29;;;;;;;16.50;10.95;;;;;;;3.50;100.00;102523.22;5055777;28;20036;-54
2023/01/03 07:04:55;;;;;;;16.70;11.38;;;;;;;3.54;100.00;102517.91;5036171;28;20040;-58
2023/01/03 07:07:20;;;;;;;19.60;11.35;;;;;;;3.53;100.00;102522.31;5052750;28;20048;-56
2023/01/03 07:09:45;;;;;;;17.98;11.05;;;;;;;3.55;100.00;102528.38;5051591;28;20798;-54
2023/01/03 07:14:54;;;;;;;17.40;11.10;;;;;;;3.57;100.00;102573.88;5034868;28;20124;-55
2023/01/03 07:17:19;;;;;;;16.80;11.02;;;;;;;3.58;100.00;102561.59;5038941;28;21096;-56
2023/01/03 07:19:45;;;;;;;16.75;11.52;;;;;;;3.60;100.00;102565.09;5046750;28;20033;-55
2023/01/03 07:22:10;;;;;;;15.60;11.15;;;;;;;3.62;100.00;102560.66;5047199;28;20442;-56
2023/01/03 07:24:35;;;;;;;16.25;10.88;;;;;;;3.66;100.00;102563.19;5044344;28;20364;-55
2023/01/03 07:27:00;;;;;;;15.13;10.45;;;;;;;3.69;100.00;102560.47;5049884;28;20124;-56
2023/01/03 07:29:26;;;;;;;20.45;12.00;;;;;;;3.73;100.00;102558.69;5045861;28;20517;-56
2023/01/03 07:31:51;;;;;;;23.48;12.00;;;;;;;3.81;100.00;102553.25;5047388;28;20047;-55
2023/01/03 07:34:17;;;;;;;19.65;12.27;;;;;;;3.85;100.00;102555.78;5044168;28;20025;-57
2023/01/03 07:36:43;;;;;;;18.58;12.48;;;;;;;3.90;100.00;102555.69;5047679;28;20092;-54
2023/01/03 07:39:08;;;;;;;18.90;13.18;;;;;;;3.96;100.00;102555.53;5045159;28;20475;-56
2023/01/03 07:44:17;;;;;;;20.27;12.50;;;;;;;4.01;100.00;102558.97;5047315;28;20039;-57
2023/01/03 07:46:43;;;;;;;20.58;12.73;;;;;;;4.03;100.00;102559.78;5045985;28;20041;-56
2023/01/03 07:49:08;;;;;;;17.50;12.30;;;;;;;4.04;100.00;102558.88;5049699;28;20501;-55
2023/01/03 07:51:33;;;;;;;21.48;13.35;;;;;;;4.07;100.00;102565.84;5048408;28;20047;-54
2023/01/03 07:53:59;;;;;;;20.63;13.07;;;;;;;4.08;100.00;102565.81;5049134;28;20041;-53
2023/01/03 07:56:24;;;;;;;21.90;13.88;;;;;;;4.11;100.00;102569.28;5044505;28;20029;-57
2023/01/03 07:58:50;;;;;;;21.73;13.55;;;;;;;4.12;100.00;102576.28;5047287;28;20033;-55
2023/01/03 08:01:21;;;;;;;20.50;13.35;;;;;;;4.12;100.00;102579.75;5045692;28;20036;-54
2023/01/03 08:03:47;;;;;;;20.38;14.13;;;;;;;4.13;100.00;102573.63;5047749;28;20029;-56
2023/01/03 08:06:18;;;;;;;22.10;14.38;;;;;;;4.14;100.00;102593.72;5049077;28;20107;-55
2023/01/03 08:08:44;;;;;;;21.17;13.68;;;;;;;4.15;100.00;102589.38;5050893;28;20135;-56
2023/01/03 08:13:55;;;;;;;24.88;15.15;;;;;;;4.16;100.00;102594.56;5050059;28;20799;-55
2023/01/03 08:16:20;;;;;;;22.02;14.88;;;;;;;4.18;100.00;102594.53;5047896;28;20084;-53
2023/01/03 08:18:46;;;;;;;26.10;15.75;;;;;;;4.22;100.00;102602.31;5045554;28;20059;-56
2023/01/03 08:21:13;;;;;;;25.08;15.05;;;;;;;4.23;100.00;102604.06;5043990;28;20039;-55
2023/01/03 08:23:39;;;;;;;23.77;14.55;;;;;;;4.27;100.00;102604.88;5040945;28;20028;-55
2023/01/03 08:26:07;;;;;;;22.33;15.10;;;;;;;4.30;100.00;102603.91;5049380;28;20025;-57
2023/01/03 08:28:33;;;;;;;22.55;15.38;;;;;;;4.33;100.00;102602.09;5051437;28;20099;-57
2023/01/03 08:31:02;;;;;;;29.88;17.25;;;;;;;4.36;100.00;102601.16;5051905;28;20426;-57
2023/01/03 08:33:33;;;;;;;25.30;16.85;;;;;;;4.38;100.00;102596.72;5044582;28;20017;-56
2023/01/03 08:36:04;;;;;;;25.83;16.45;;;;;;;4.43;100.00;102605.41;5045407;28;20041;-57
2023/01/03 08:38:34;;;;;;;28.63;16.55;;;;;;;4.44;100.00;102602.72;5042306;28;20134;-57
2023/01/03 08:41:02;;;;;;;25.17;16.20;;;;;;;4.49;100.00;102605.25;5039200;28;20553;-55
2023/01/03 08:43:31;;;;;;;29.45;16.45;;;;;;;4.53;100.00;102612.19;5045488;28;20075;-54
2023/01/03 08:45:57;;;;;;;27.40;16.17;;;;;;;4.56;100.00;102620.00;5046718;28;20037;-55
2023/01/03 08:48:23;;;;;;;28.88;16.90;;;;;;;4.61;100.00;102618.13;5049842;28;20044;-57
2023/01/03 08:50:48;;;;;;;26.50;17.20;;;;;;;4.64;100.00;102618.03;5052654;28;20060;-55
2023/01/03 08:53:13;;;;;;;29.63;17.83;;;;;;;4.68;100.00;102617.97;5048407;28;20423;-56
2023/01/03 08:55:39;;;;;;;26.75;17.60;;;;;;;4.72;100.00;102619.66;5049589;28;20038;-55
2023/01/03 08:58:04;;;;;;;27.77;17.35;;;;;;;4.75;100.00;102620.44;5047748;28;20417;-55
2023/01/03 09:00:29;;;;;;;27.85;16.45;;;;;;;4.80;100.00;102622.97;5050765;28;20040;-57
2023/01/03 09:02:59;;;;;;;28.40;16.52;;;;;;;4.83;100.00;102625.53;5031942;28;20033;-58
2023/01/03 09:05:24;;;;;;;;;;;;;;;4.91;100.00;102625.34;5038340;28;20567;-57
2023/01/03 09:07:49;;;;;;;33.70;16.70;;;;;;;4.93;100.00;102618.25;5031748;28;20261;-58
2023/01/03 09:10:15;;;;;;;25.38;16.50;;;;;;;4.97;100.00;102626.03;5051037;28;20099;-57
2023/01/03 09:12:40;;;;;;;26.70;16.60;;;;;;;5.00;100.00;102619.84;5050120;28;20032;-56
2023/01/03 09:15:06;;;;;;;28.92;15.90;;;;;;;5.04;100.00;102633.81;5055266;28;20035;-58
2023/01/03 09:17:31;;;;;;;26.75;16.35;;;;;;;5.07;100.00;102629.31;5047494;28;20038;-57
2023/01/03 09:19:56;;;;;;;27.25;17.35;;;;;;;5.11;100.00;102628.34;5043130;28;20497;-57
2023/01/03 09:22:21;;;;;;;25.33;16.48;;;;;;;5.14;100.00;102630.03;5044422;28;20083;-56
2023/01/03 09:24:47;;;;;;;27.77;16.58;;;;;;;5.17;100.00;102635.22;5049582;28;20025;-58
2023/01/03 09:27:12;;;;;;;25.98;16.38;;;;;;;5.19;100.00;102634.28;5050532;28;20531;-58
2023/01/03 09:29:37;;;;;;;24.55;16.08;;;;;;;5.22;100.00;102633.34;5052648;28;20055;-58
2023/01/03 09:32:03;;;;;;;24.75;16.05;;;;;;;5.26;100.00;102620.94;5052716;28;20029;-57
2023/01/03 09:34:28;;;;;;;28.02;15.98;;;;;;;5.29;100.00;102621.72;5050292;28;20029;-56
2023/01/03 09:36:54;;;;;;;25.55;15.23;;;;;;;5.31;100.00;102621.69;5050486;28;20532;-57
2023/01/03 09:39:19;;;;;;;25.63;15.68;;;;;;;5.34;100.00;102627.75;5039461;28;20457;-57
2023/01/03 09:43:11;;;;;;;25.88;15.50;;;;;;;5.36;100.00;102631.22;5046152;28;20107;-58
2023/01/03 09:44:30;;;;;;;23.95;14.18;;;;;;;5.40;100.00;102623.25;5037109;28;20419;-57
2023/01/03 09:46:56;;;;;;;22.45;14.35;;;;;;;5.42;100.00;102629.34;5042895;28;20087;-57
2023/01/03 09:49:21;;;;;;;22.55;15.68;;;;;;;5.46;100.00;102633.59;5044284;28;20025;-56
2023/01/03 10:03:47;;;;;;;23.52;13.35;;;;;;;5.61;100.00;102622.66;5053036;28;20044;-57
2023/01/03 10:06:21;;;;;;;18.65;12.18;;;;;;;5.65;100.00;102616.41;5050199;28;20017;-58
2023/01/03 10:09:04;;;;;;;25.58;13.23;;;;;;;5.66;100.00;102618.16;5052265;28;20052;-57
2023/01/03 10:11:49;;;;;;;22.27;12.05;;;;;;;5.72;100.00;102614.47;5052612;28;20471;-56
2023/01/03 10:14:33;;;;;;;18.58;11.48;;;;;;;5.77;100.00;102616.97;5049735;28;20143;-57
2023/01/03 10:17:08;;;;;;;18.13;11.90;;;;;;;5.79;100.00;102612.53;5052489;28;20017;-57
2023/01/03 10:20:13;;;;;;;18.70;11.73;;;;;;;5.83;100.00;102617.66;5053252;28;20021;-58
2023/01/03 10:22:38;;;;;;;19.63;11.18;;;;;;;5.87;100.00;102611.38;5052109;28;20040;-58
2023/01/03 10:25:03;;;;;;;16.10;11.02;;;;;;;5.91;100.00;102614.78;5052313;28;20021;-56
2023/01/03 10:27:42;;;;;;;16.90;10.73;;;;;;;5.96;100.00;102620.84;5053479;28;20028;-57
2023/01/03 10:30:13;;;;;;;19.60;10.85;;;;;;;6.00;100.00;102619.84;5054565;28;20312;-58
2023/01/03 10:32:51;;;;;;;15.95;11.02;;;;;;;6.04;100.00;102621.47;5051154;28;20376;-56
2023/01/03 10:35:19;;;;;;;19.58;11.20;;;;;;;6.07;100.00;102616.13;5044971;28;20029;-58
2023/01/03 10:37:49;;;;;;;17.00;10.43;;;;;;;6.11;100.00;102617.78;5040637;28;20028;-55
2023/01/03 10:40:15;;;;;;;16.20;10.85;;;;;;;6.15;100.00;102617.69;5043190;28;20028;-57
2023/01/03 10:42:41;;;;;;;19.08;10.13;;;;;;;6.19;100.00;102621.94;5044701;28;20021;-57
2023/01/03 10:45:19;;;;;;;19.77;10.70;;;;;;;6.22;100.00;102614.81;5042320;28;20479;-57
2023/01/03 10:48:00;;;;;;;17.77;9.88;;;;;;;6.25;100.00;102613.88;5040159;28;20071;-57
2023/01/03 10:50:27;;;;;;;16.42;9.68;;;;;;;6.29;100.00;102619.00;5039956;28;20029;-58
2023/01/03 10:53:04;;;;;;;15.30;9.20;;;;;;;6.33;100.00;102617.13;5050213;28;20368;-58
2023/01/03 10:55:33;;;;;;;20.05;10.35;;;;;;;6.35;100.00;102619.72;5051451;28;20029;-57
2023/01/03 10:58:01;;;;;;;14.70;9.38;;;;;;;6.38;100.00;102619.59;5044798;28;20053;-57
2023/01/03 11:00:28;;;;;;;14.57;9.13;;;;;;;6.39;100.00;102616.94;5049662;28;20033;-57
2023/01/03 11:03:00;;;;;;;16.63;9.20;;;;;;;6.42;100.00;102615.97;5049588;28;20441;-56
2023/01/03 11:05:25;;;;;;;14.07;9.05;;;;;;;6.43;100.00;102615.94;5051804;28;20029;-57
2023/01/03 11:07:56;;;;;;;18.70;9.13;;;;;;;6.46;100.00;102612.31;5048999;28;20460;-57
2023/01/03 11:10:24;;;;;;;15.02;8.80;;;;;;;6.47;100.00;102607.00;5051665;28;20036;-57
2023/01/03 11:12:50;;;;;;;13.93;8.80;;;;;;;6.48;100.00;102606.09;5044922;28;20033;-58
2023/01/03 11:15:18;;;;;;;16.00;8.40;;;;;;;6.51;100.00;102605.13;5053166;28;20025;-57
2023/01/03 11:17:58;;;;;;;15.20;8.43;;;;;;;6.53;100.00;102605.06;5043661;28;20044;-58
2023/01/03 11:20:48;;;;;;;17.60;8.98;;;;;;;6.57;100.00;102606.72;5047200;28;20036;-57
2023/01/03 11:23:41;;;;;;;14.48;8.32;;;;;;;6.57;100.00;102607.59;5047295;28;20040;-58
2023/01/03 11:26:26;;;;;;;12.77;8.50;;;;;;;6.58;100.00;102616.38;5049557;28;20502;-57
2023/01/03 11:29:09;;;;;;;13.98;8.43;;;;;;;6.60;100.00;102612.78;5049150;28;20543;-55
2023/01/03 11:32:06;;;;;;;13.77;8.60;;;;;;;6.63;100.00;102609.19;5050187;28;20586;-57
2023/01/03 11:35:04;;;;;;;12.70;8.90;;;;;;;6.62;100.00;102612.72;5044447;28;20029;-58
2023/01/03 11:37:58;;;;;;;13.30;9.40;;;;;;;6.62;100.00;102604.81;5047365;28;20025;-58
2023/01/03 11:40:44;;;;;;;13.52;9.60;;;;;;;6.60;100.00;102606.63;5046837;28;20417;-57
2023/01/03 11:43:31;;;;;;;14.75;10.10;;;;;;;6.59;100.00;102600.47;5048597;28;20492;-56
2023/01/03 11:46:32;;;;;;;17.65;10.65;;;;;;;6.60;100.00;102601.34;5047749;28;20124;-55
2023/01/03 11:49:19;;;;;;;15.20;9.70;;;;;;;6.58;100.00;102597.91;5049128;28;20025;-57
2023/01/03 11:52:09;;;;;;;14.07;9.52;;;;;;;6.60;100.00;102604.00;5049075;28;20059;-57
2023/01/03 11:55:11;;;;;;;14.93;9.38;;;;;;;6.62;100.00;102594.25;5046557;28;20060;-57
2023/01/03 11:57:47;;;;;;;13.75;9.15;;;;;;;6.62;100.00;102599.53;5043561;28;20077;-56
2023/01/03 12:00:51;;;;;;;17.45;8.52;;;;;;;6.64;100.00;102585.38;5046454;28;20037;-54
2023/01/03 12:03:53;;;;;;;14.40;7.80;;;;;;;6.66;100.00;102577.38;5046501;28;20080;-55
2023/01/03 12:06:28;;;;;;;14.88;8.25;;;;;;;6.73;100.00;102575.41;5047126;28;20045;-52
2023/01/03 12:09:15;;;;;;;13.02;6.75;;;;;;;6.77;100.00;102577.91;5046149;28;20079;-53
2023/01/03 12:12:06;;;;;;;9.77;6.03;;;;;;;6.85;100.00;102578.50;5045507;28;20045;-54
2023/01/03 12:14:52;;;;;;;10.85;5.68;;;;;;;6.92;100.00;102563.31;5043833;28;20033;-53
2023/01/03 12:17:25;;;;;;;7.90;5.10;;;;;;;6.96;100.00;102558.78;5040126;28;20049;-57
2023/01/03 12:20:00;;;;;;;11.25;5.32;;;;;;;6.98;100.00;102551.69;5045512;28;20471;-56